Time;durP1;ratioP1;P1;durP2;ratioP2;P2;SDS_P1;SDS_P2;PMS_P1;PMS_P2;Temp;Humidity;BMP_temperature;BMP_pressure;BME280_temperature;BME280_humidity;BME280_pressure;Samples;Min_cycle;Max_cycle;Signal;HPM_P1;HPM_P2
2023/03/05 00:01:27;;;;;;;;;26.00;22.00;;;;;8.33;55.52;101610.00;5055585;28;45566;-76
2023/03/05 00:07:15;;;;;;;;;22.00;21.75;;;;;8.34;55.72;101610.84;5054814;28;46278;-77
2023/03/05 00:09:40;;;;;;;;;24.75;24.00;;;;;8.27;55.76;101594.59;5056549;28;45500;-78
2023/03/05 00:12:06;;;;;;;;;28.50;27.00;;;;;8.12;55.91;101571.81;5056506;28;45463;-78
2023/03/05 00:14:31;;;;;;;;;27.50;26.50;;;;;8.17;56.29;101579.41;5055780;28;45829;-76
2023/03/05 00:16:56;;;;;;;;;25.25;24.75;;;;;8.32;56.26;101600.47;5056147;28;46118;-76
2023/03/05 00:19:22;;;;;;;;;30.25;26.75;;;;;8.32;56.52;101605.69;5055525;28;45637;-77
2023/03/05 00:21:47;;;;;;;;;28.25;26.00;;;;;8.23;56.56;101584.38;5055484;28;45755;-77
2023/03/05 00:24:16;;;;;;;;;25.75;24.25;;;;;8.30;56.87;101596.25;5055553;28;45720;-79
2023/03/05 00:26:43;;;;;;;;;17.75;15.00;;;;;8.31;57.13;101604.00;5055245;28;45656;-77
2023/03/05 00:29:11;;;;;;;;;19.50;18.00;;;;;8.30;57.11;101602.34;5055217;28;45560;-79
2023/03/05 00:31:37;;;;;;;;;17.50;15.25;;;;;8.24;57.08;101592.13;5054970;28;45632;-77
2023/03/05 00:37:24;;;;;;;;;15.75;14.00;;;;;8.22;57.82;101593.09;5054585;28;46053;-79
2023/03/05 00:39:49;;;;;;;;;19.00;17.25;;;;;8.23;57.67;101598.25;5054852;28;45535;-76
2023/03/05 00:42:14;;;;;;;;;16.75;15.25;;;;;8.16;57.70;101590.78;5054770;28;45762;-77
2023/03/05 00:44:40;;;;;;;;;19.75;18.75;;;;;8.24;57.82;101604.34;5054571;28;45487;-78
2023/03/05 00:47:05;;;;;;;;;18.50;15.25;;;;;8.23;57.80;101593.03;5054523;28;45512;-76
2023/03/05 00:52:52;;;;;;;;;14.25;13.50;;;;;8.14;58.46;101571.75;5054244;28;45504;-78
2023/03/05 00:55:18;;;;;;;;;18.00;16.50;;;;;8.25;58.66;101590.38;5054480;28;46567;-76
2023/03/05 00:57:43;;;;;;;;;18.50;16.00;;;;;8.20;58.39;101581.91;5054566;28;45631;-77
2023/03/05 01:00:10;;;;;;;;;16.50;15.75;;;;;8.11;58.66;101561.44;5054638;28;45673;-78
2023/03/05 01:02:35;;;;;;;;;17.25;14.25;;;;;8.25;58.85;101591.22;5054647;28;45535;-77
2023/03/05 01:05:01;;;;;;;;;16.00;15.00;;;;;8.25;58.85;101585.16;5054467;28;45433;-78
2023/03/05 01:07:26;;;;;;;;;15.50;14.00;;;;;8.25;58.98;101580.78;5054874;28;46173;-78
2023/03/05 01:09:51;;;;;;;;;15.00;11.50;;;;;8.22;58.95;101574.84;5054703;28;45591;-78
2023/03/05 01:12:17;;;;;;;;;23.50;17.50;;;;;8.24;59.17;101576.47;5054506;28;45754;-76
2023/03/05 01:14:42;;;;;;;;;15.00;13.00;;;;;8.04;59.15;101533.94;5035984;28;46338;-77
2023/03/05 01:17:07;;;;;;;;;18.75;17.75;;;;;8.16;59.13;101562.91;5054280;28;46339;-77
2023/03/05 01:22:55;;;;;;;;;16.00;11.25;;;;;8.15;59.61;101571.66;5056415;28;45473;-75
2023/03/05 01:25:20;;;;;;;;;17.50;14.25;;;;;8.18;59.42;101560.25;5056221;28;45496;-78
2023/03/05 01:27:46;;;;;;;;;12.00;11.00;;;;;8.16;59.49;101562.06;5055275;28;45640;-77
2023/03/05 01:30:13;;;;;;;;;17.50;16.50;;;;;8.14;59.56;101559.53;5054427;28;45586;-78
2023/03/05 01:32:39;;;;;;;;;19.00;17.00;;;;;8.13;59.92;101560.44;5053995;28;45679;-78
2023/03/05 01:38:26;;;;;;;;;18.50;14.00;;;;;8.07;59.86;101539.84;5053636;28;46081;-79
2023/03/05 01:40:51;;;;;;;;;14.00;13.00;;;;;8.14;60.11;101546.50;5053722;28;45661;-77
2023/03/05 01:43:28;;;;;;;;;23.00;16.50;;;;;8.12;60.16;101543.09;5054133;28;45711;-77
2023/03/05 01:46:12;;;;;;;;;19.75;18.50;;;;;8.11;60.39;101533.56;5053973;28;46712;-79
2023/03/05 01:48:41;;;;;;;;;18.00;17.00;;;;;8.08;60.38;101528.50;5053598;28;46231;-77
2023/03/05 01:51:06;;;;;;;;;18.00;17.00;;;;;8.09;60.63;101529.34;5053494;28;45662;-77
2023/03/05 01:53:32;;;;;;;;;15.75;13.75;;;;;8.06;60.66;101519.88;5053138;28;45610;-78
2023/03/05 01:55:57;;;;;;;;;22.00;18.00;;;;;7.99;60.91;101508.03;5052106;28;46334;-77
2023/03/05 01:58:24;;;;;;;;;17.75;17.00;;;;;8.05;61.29;101527.78;5053264;28;46254;-77
2023/03/05 02:00:53;;;;;;;;;22.00;15.00;;;;;7.89;61.04;101501.53;5053610;28;46062;-76
2023/03/05 02:09:28;;;;;;;;;25.00;17.25;;;;;8.01;61.68;101514.03;5052807;28;45767;-76
2023/03/05 02:11:54;;;;;;;;;17.00;16.50;;;;;7.99;61.65;101510.63;5052911;28;45622;-76
2023/03/05 02:14:21;;;;;;;;;18.75;16.50;;;;;7.98;61.92;101508.97;5053245;28;45574;-78
2023/03/05 02:16:46;;;;;;;;;16.00;15.00;;;;;7.96;62.04;101514.25;5052802;28;45716;-78
2023/03/05 02:19:12;;;;;;;;;18.75;17.00;;;;;7.90;62.21;101498.03;5052792;28;46159;-78
2023/03/05 02:21:43;;;;;;;;;19.25;18.00;;;;;7.94;61.92;101505.63;5052779;28;45799;-78
2023/03/05 02:24:12;;;;;;;;;21.50;17.50;;;;;7.94;61.65;101497.81;5053048;28;45587;-75
2023/03/05 02:26:37;;;;;;;;;18.75;18.00;;;;;7.90;62.07;101490.19;5052800;28;46499;-78
2023/03/05 02:29:05;;;;;;;;;21.50;18.75;;;;;7.94;62.33;101489.13;5052656;28;46354;-78
2023/03/05 02:31:30;;;;;;;;;25.50;22.25;;;;;7.80;62.43;101468.06;5053101;28;45698;-76
2023/03/05 02:33:56;;;;;;;;;21.75;17.00;;;;;7.94;62.43;101483.91;5054013;28;45611;-78
2023/03/05 02:36:22;;;;;;;;;22.00;19.25;;;;;7.94;62.45;101486.53;5054461;28;46498;-76
2023/03/05 02:38:47;;;;;;;;;25.25;21.25;;;;;7.95;62.31;101480.41;5053740;28;46829;-77
2023/03/05 02:41:13;;;;;;;;;17.00;14.75;;;;;7.97;62.48;101475.97;5052774;28;45923;-77
2023/03/05 02:43:39;;;;;;;;;24.00;21.75;;;;;7.86;62.47;101460.81;5052516;28;45575;-77
2023/03/05 02:46:04;;;;;;;;;25.25;21.50;;;;;7.97;62.31;101465.53;5052991;28;46396;-78
2023/03/05 02:48:30;;;;;;;;;25.00;23.25;;;;;7.97;62.59;101461.16;5053798;28;45674;-78
2023/03/05 02:54:17;;;;;;;;;22.25;21.25;;;;;7.87;62.79;101446.84;5053751;28;45652;-77
2023/03/05 02:56:42;;;;;;;;;24.50;21.00;;;;;7.92;62.76;101447.47;5053326;28;46851;-78
2023/03/05 02:59:08;;;;;;;;;25.75;21.75;;;;;7.93;62.78;101450.94;5052787;28;45675;-77
2023/03/05 03:01:33;;;;;;;;;27.00;25.25;;;;;7.84;62.99;101428.72;5052364;28;45661;-77
2023/03/05 03:03:59;;;;;;;;;27.00;22.00;;;;;7.72;62.84;101415.41;5052580;28;45533;-78
2023/03/05 03:09:46;;;;;;;;;25.25;23.25;;;;;7.92;62.96;101446.63;5055981;28;45701;-77
2023/03/05 03:12:11;;;;;;;;;24.25;21.50;;;;;7.93;63.22;101441.34;5056702;28;45885;-75
2023/03/05 03:14:40;;;;;;;;;25.25;23.00;;;;;7.91;63.29;101440.56;5056519;28;45909;-78
2023/03/05 03:17:06;;;;;;;;;27.25;22.00;;;;;7.86;63.38;101431.25;5056038;28;47282;-78
2023/03/05 03:19:32;;;;;;;;;27.75;25.00;;;;;7.87;63.39;101431.19;5056221;28;45913;-77
2023/03/05 03:21:57;;;;;;;;;27.75;22.75;;;;;7.82;63.52;101422.75;5053076;28;45871;-77
2023/03/05 03:24:22;;;;;;;;;28.00;21.00;;;;;7.83;63.46;101415.72;5055319;28;45915;-77
2023/03/05 03:26:49;;;;;;;;;24.25;19.75;;;;;7.83;63.54;101419.19;5054388;28;45552;-78
2023/03/05 03:29:16;;;;;;;;;20.75;16.25;;;;;7.85;63.60;101425.19;5037451;28;46402;-76
2023/03/05 03:31:44;;;;;;;;;22.00;19.25;;;;;7.84;63.53;101423.50;5055359;28;45552;-75
2023/03/05 03:34:11;;;;;;;;;25.00;23.00;;;;;7.66;63.69;101395.69;5056256;28;45595;-76
2023/03/05 03:39:58;;;;;;;;;25.50;17.75;;;;;7.82;63.38;101416.69;5058303;28;45879;-76
2023/03/05 03:42:24;;;;;;;;;19.50;17.25;;;;;7.76;63.63;101401.31;5058399;28;45531;-76
2023/03/05 03:44:50;;;;;;;;;24.50;18.00;;;;;7.80;63.63;101408.06;5059050;28;45667;-77
2023/03/05 03:47:16;;;;;;;;;16.25;14.75;;;;;7.82;63.69;101411.47;5057858;28;46512;-76
2023/03/05 03:49:41;;;;;;;;;19.25;17.50;;;;;7.76;63.68;101396.09;5058105;28;46328;-79
2023/03/05 03:55:28;;;;;;;;;16.75;15.25;;;;;7.79;63.63;101391.56;5058901;28;45547;-79
2023/03/05 03:57:53;;;;;;;;;17.75;14.75;;;;;7.78;63.70;101391.63;5058093;28;45715;-79
2023/03/05 04:00:19;;;;;;;;;15.25;14.50;;;;;7.78;63.81;101394.22;5071556;28;46270;-77
2023/03/05 04:02:45;;;;;;;;;18.25;16.25;;;;;7.81;63.64;101396.72;5055395;28;45726;-82
2023/03/05 04:05:10;;;;;;;;;19.50;14.50;;;;;7.81;63.45;101389.75;5055730;28;45586;-80
2023/03/05 04:07:36;;;;;;;;;21.50;18.75;;;;;7.79;63.67;101378.53;5055345;28;47502;-81
2023/03/05 04:10:02;;;;;;;;;18.75;15.25;;;;;7.81;63.96;101388.91;5056335;28;45709;-79
2023/03/05 04:12:27;;;;;;;;;21.50;17.25;;;;;7.82;63.65;101388.84;5055975;28;45909;-80
2023/03/05 04:14:53;;;;;;;;;22.50;19.25;;;;;7.74;63.82;101374.44;5057009;28;45699;-80
2023/03/05 04:17:18;;;;;;;;;18.75;17.00;;;;;7.81;63.76;101391.50;5055217;28;46361;-80
2023/03/05 04:19:43;;;;;;;;;21.00;17.25;;;;;7.78;63.84;101383.81;5036638;28;47663;-78
2023/03/05 04:25:30;;;;;;;;;15.75;15.00;;;;;7.80;63.79;101392.41;5055254;28;45673;-79
2023/03/05 04:27:56;;;;;;;;;22.00;17.00;;;;;7.74;63.88;101385.72;5054971;28;45801;-79
2023/03/05 04:30:21;;;;;;;;;22.75;19.25;;;;;7.70;63.73;101370.28;5054829;28;45765;-79
2023/03/05 04:32:46;;;;;;;;;16.00;13.00;;;;;7.51;63.90;101337.25;5054848;28;45686;-80
2023/03/05 04:35:12;;;;;;;;;20.00;16.50;;;;;7.78;63.81;101382.03;5054804;28;45702;-77
2023/03/05 04:40:59;;;;;;;;;22.50;18.00;;;;;7.76;64.08;101373.47;5053675;28;46220;-79
2023/03/05 04:43:24;;;;;;;;;18.50;14.00;;;;;7.76;64.01;101373.47;5054397;28;45577;-75
2023/03/05 04:45:50;;;;;;;;;18.75;16.25;;;;;7.76;63.55;101370.00;5036005;28;45604;-79
2023/03/05 04:48:15;;;;;;;;;21.50;18.75;;;;;7.77;63.78;101367.34;5054265;28;45554;-78
2023/03/05 04:50:41;;;;;;;;;17.00;14.00;;;;;7.71;63.90;101361.56;5054657;28;45771;-78
2023/03/05 04:53:06;;;;;;;;;17.50;13.75;;;;;7.71;63.80;101358.94;5057101;28;45642;-80
2023/03/05 04:55:32;;;;;;;;;17.25;13.75;;;;;7.78;64.02;101369.00;5057292;28;45721;-80
2023/03/05 04:57:57;;;;;;;;;21.25;13.25;;;;;7.78;63.97;101363.78;5055938;28;46409;-77
2023/03/05 05:00:23;;;;;;;;;17.00;15.25;;;;;7.78;64.18;101355.97;5054359;28;46352;-77
2023/03/05 05:02:50;;;;;;;;;16.25;14.00;;;;;7.76;63.89;101360.44;5035592;28;45636;-78
2023/03/05 05:05:27;;;;;;;;;17.50;14.00;;;;;7.75;63.94;101356.13;5052849;28;45580;-79
2023/03/05 05:11:14;;;;;;;;;16.25;13.75;;;;;7.67;63.91;101342.59;5054254;28;45668;-78
2023/03/05 05:13:40;;;;;;;;;13.50;12.25;;;;;7.67;64.01;101345.19;5054488;28;45739;-77
2023/03/05 05:16:06;;;;;;;;;18.75;15.75;;;;;7.61;64.02;101329.00;5055861;28;45599;-78
2023/03/05 05:18:32;;;;;;;;;14.50;12.25;;;;;7.70;64.20;101345.06;5056185;28;45575;-78
2023/03/05 05:20:58;;;;;;;;;14.00;13.00;;;;;7.66;64.11;101327.03;5056003;28;46099;-77
2023/03/05 05:26:45;;;;;;;;;16.50;15.75;;;;;7.68;64.20;101336.47;5056559;28;45603;-77
2023/03/05 05:29:11;;;;;;;;;14.25;14.00;;;;;7.50;64.16;101308.66;5053498;28;47601;-78
2023/03/05 05:31:37;;;;;;;;;18.75;16.00;;;;;7.61;64.11;101326.41;5033725;28;46201;-78
2023/03/05 05:34:03;;;;;;;;;16.00;13.50;;;;;7.66;64.11;101327.88;5053023;28;45873;-77
2023/03/05 05:36:28;;;;;;;;;17.75;12.50;;;;;7.57;64.07;101307.44;5053639;28;45557;-78
2023/03/05 05:38:54;;;;;;;;;17.00;14.25;;;;;7.67;64.09;101321.72;5053463;28;46569;-77
2023/03/05 05:41:20;;;;;;;;;16.25;15.00;;;;;7.68;64.31;101323.41;5053080;28;45708;-75
2023/03/05 05:43:46;;;;;;;;;20.75;18.25;;;;;7.68;64.16;101327.78;5053446;28;45610;-77
2023/03/05 05:46:14;;;;;;;;;25.00;21.50;;;;;7.63;64.27;101311.50;5053228;28;45644;-79
2023/03/05 05:48:40;;;;;;;;;23.75;20.25;;;;;7.50;64.21;101300.84;5053028;28;45619;-79
2023/03/05 05:51:08;;;;;;;;;8.25;4.75;;;;;7.68;64.14;101317.34;5052670;28;46075;-77
2023/03/05 05:57:21;;;;;;;;;19.00;16.25;;;;;7.66;64.43;101314.00;5057647;28;45601;-76
2023/03/05 05:59:47;;;;;;;;;20.25;17.00;;;;;7.71;64.26;101318.06;5034144;28;45962;-78
2023/03/05 06:02:12;;;;;;;;;19.25;17.00;;;;;7.68;64.31;101315.59;5052217;28;45687;-78
2023/03/05 06:04:39;;;;;;;;;16.75;16.50;;;;;7.67;64.35;101319.13;5052679;28;45586;-79
2023/03/05 06:07:04;;;;;;;;;17.75;15.50;;;;;7.69;64.37;101314.69;5052561;28;45515;-80
2023/03/05 06:09:30;;;;;;;;;15.00;15.00;;;;;7.68;64.34;101319.97;5052068;28;45658;-78
2023/03/05 06:11:55;;;;;;;;;17.75;14.00;;;;;7.67;64.36;101320.88;5033797;28;46818;-78
2023/03/05 06:14:20;;;;;;;;;17.00;16.00;;;;;7.57;64.47;101310.03;5053413;28;45552;-81
2023/03/05 06:16:47;;;;;;;;;16.75;13.75;;;;;7.63;64.39;101321.94;5053271;28;45790;-77
2023/03/05 06:19:15;;;;;;;;;18.25;16.50;;;;;7.63;64.37;101314.13;5054771;28;46520;-79
2023/03/05 06:21:42;;;;;;;;;15.25;13.25;;;;;7.59;64.73;101310.81;5052374;28;47080;-78
2023/03/05 06:27:29;;;;;;;;;16.50;14.00;;;;;7.63;64.28;101314.13;5053176;28;45646;-79
2023/03/05 06:29:55;;;;;;;;;16.00;14.00;;;;;7.63;64.34;101314.97;5053060;28;45961;-79
2023/03/05 06:32:22;;;;;;;;;14.25;12.75;;;;;7.62;64.21;101310.66;5034624;28;48346;-79
2023/03/05 06:34:48;;;;;;;;;14.00;11.00;;;;;7.59;64.31;101313.44;5052231;28;45785;-77
2023/03/05 06:37:13;;;;;;;;;12.50;10.00;;;;;7.54;64.13;101304.97;5052949;28;45496;-78
2023/03/05 06:39:39;;;;;;;;;17.25;13.00;;;;;7.54;64.30;101307.59;5053223;28;45587;-79
2023/03/05 06:42:04;;;;;;;;;17.25;14.25;;;;;7.61;64.35;101315.97;5053045;28;47152;-77
2023/03/05 06:44:29;;;;;;;;;23.00;18.50;;;;;7.57;64.37;101310.03;5057559;28;46089;-77
2023/03/05 06:46:55;;;;;;;;;16.00;13.25;;;;;7.63;64.28;101312.34;5056543;28;45892;-77
2023/03/05 06:49:20;;;;;;;;;17.75;17.25;;;;;7.57;64.43;101310.88;5055173;28;46682;-78
2023/03/05 06:51:46;;;;;;;;;17.00;16.75;;;;;7.63;64.24;101312.34;5055761;28;46204;-79
2023/03/05 06:57:33;;;;;;;;;16.25;14.75;;;;;7.64;64.37;101308.00;5060704;28;45862;-79
2023/03/05 06:59:58;;;;;;;;;14.25;11.25;;;;;7.65;64.06;101305.31;5055835;28;46446;-79
2023/03/05 07:02:24;;;;;;;;;21.00;15.75;;;;;7.68;64.28;101304.31;5055455;28;46051;-80
2023/03/05 07:04:49;;;;;;;;;17.00;15.25;;;;;7.69;64.18;101304.25;5056056;28;45437;-79
2023/03/05 07:07:15;;;;;;;;;13.00;13.00;;;;;7.72;64.01;101300.66;5056165;28;45542;-79
2023/03/05 07:13:05;;;;;;;;;20.00;17.50;;;;;7.67;64.01;101292.19;5058763;28;46228;-80
2023/03/05 07:15:31;;;;;;;;;18.00;14.75;;;;;7.74;63.94;101304.03;5061874;28;45552;-77
2023/03/05 07:17:56;;;;;;;;;15.25;13.00;;;;;7.55;64.01;101259.75;5057858;28;45635;-77
2023/03/05 07:20:22;;;;;;;;;15.00;13.50;;;;;7.69;63.90;101290.38;5056640;28;45709;-77
2023/03/05 07:22:47;;;;;;;;;15.00;12.50;;;;;7.74;63.88;101293.59;5056169;28;45633;-78
2023/03/05 07:25:12;;;;;;;;;15.50;13.50;;;;;7.78;63.70;101295.13;5056177;28;45610;-78
2023/03/05 07:27:38;;;;;;;;;9.50;9.00;;;;;7.79;63.77;101299.44;5056300;28;45591;-78
2023/03/05 07:30:04;;;;;;;;;14.00;12.50;;;;;7.85;63.53;101302.59;5055819;28;46208;-78
2023/03/05 07:32:29;;;;;;;;;16.00;11.25;;;;;7.87;63.51;101305.13;5055823;28;45507;-79
2023/03/05 07:34:56;;;;;;;;;11.00;9.50;;;;;7.89;63.37;101311.09;5056157;28;45704;-78
2023/03/05 07:37:22;;;;;;;;;14.00;10.50;;;;;7.87;63.39;101295.53;5056265;28;45506;-76
2023/03/05 07:43:09;;;;;;;;;16.00;13.25;;;;;7.91;63.41;101311.88;5055343;28;45751;-78
2023/03/05 07:45:39;;;;;;;;;16.25;12.75;;;;;7.95;63.33;101305.59;5070924;28;46155;-78
2023/03/05 07:48:05;;;;;;;;;12.50;10.00;;;;;7.95;63.39;101310.81;5055688;28;45609;-78
2023/03/05 07:50:32;;;;;;;;;14.25;13.75;;;;;7.96;63.28;101309.91;5055499;28;46482;-78
2023/03/05 07:52:57;;;;;;;;;15.00;14.25;;;;;7.93;63.31;101297.00;5055597;28;45929;-78
2023/03/05 07:55:23;;;;;;;;;13.50;10.50;;;;;8.01;63.30;101307.91;5054773;28;45586;-79
2023/03/05 07:57:50;;;;;;;;;14.75;13.25;;;;;7.91;63.18;101281.44;5055183;28;45669;-78
2023/03/05 08:00:16;;;;;;;;;13.50;11.00;;;;;8.03;63.36;101306.06;5054613;28;46573;-78
2023/03/05 08:02:41;;;;;;;;;15.25;12.00;;;;;8.06;63.20;101302.44;5054927;28;46083;-79
2023/03/05 08:05:07;;;;;;;;;10.00;8.50;;;;;8.02;63.05;101302.63;5055117;28;46081;-76
2023/03/05 08:07:32;;;;;;;;;13.50;9.00;;;;;8.05;62.97;101296.38;5055023;28;45616;-73
2023/03/05 08:13:19;;;;;;;;;14.00;9.75;;;;;8.03;62.89;101298.25;5054504;28;46130;-76
2023/03/05 08:15:44;;;;;;;;;13.50;10.75;;;;;8.09;62.71;101303.16;5055205;28;45611;-76
2023/03/05 08:18:10;;;;;;;;;12.25;10.00;;;;;8.10;62.77;101302.22;5055092;28;45734;-76
2023/03/05 08:20:35;;;;;;;;;13.25;10.50;;;;;8.11;62.44;101300.44;5054066;28;46835;-74
2023/03/05 08:23:02;;;;;;;;;15.00;12.75;;;;;8.12;62.48;101289.94;5054872;28;46544;-76
2023/03/05 08:28:49;;;;;;;;;12.75;12.50;;;;;8.11;62.51;101277.81;5055593;28;45584;-78
2023/03/05 08:31:17;;;;;;;;;14.25;12.00;;;;;8.20;62.69;101293.03;5054219;28;46587;-75
2023/03/05 08:33:43;;;;;;;;;11.25;9.75;;;;;8.14;62.49;101266.41;5036102;28;48084;-75
2023/03/05 08:36:09;;;;;;;;;13.50;11.50;;;;;8.25;62.39;101285.81;5056204;28;45773;-74
2023/03/05 08:38:35;;;;;;;;;17.00;15.75;;;;;8.30;62.32;101283.84;5056244;28;45739;-75
2023/03/05 08:41:01;;;;;;;;;16.50;14.50;;;;;8.31;62.44;101279.47;5058660;28;46395;-76
2023/03/05 08:43:27;;;;;;;;;18.25;14.00;;;;;8.36;62.47;101288.75;5054979;28;46368;-74
2023/03/05 08:45:52;;;;;;;;;17.00;13.25;;;;;8.40;62.49;101292.91;5055173;28;45618;-77
2023/03/05 08:48:19;;;;;;;;;12.75;10.75;;;;;8.43;62.25;101291.88;5054637;28;45925;-77
2023/03/05 08:50:45;;;;;;;;;9.75;6.25;;;;;8.45;62.29;101286.59;5053752;28;46574;-76
2023/03/05 08:53:10;;;;;;;;;13.50;10.25;;;;;8.46;62.25;101283.91;5053910;28;46015;-74
2023/03/05 08:58:57;;;;;;;;;14.75;10.00;;;;;8.48;61.90;101268.97;5062670;28;45795;-75
2023/03/05 09:01:22;;;;;;;;;18.50;16.00;;;;;8.57;61.95;101273.75;5054286;28;47369;-72
2023/03/05 09:03:48;;;;;;;;;17.00;15.00;;;;;8.58;61.85;101272.00;5053862;28;45921;-75
2023/03/05 09:06:14;;;;;;;;;15.00;13.50;;;;;8.61;61.61;101275.28;5053102;28;45639;-76
2023/03/05 09:08:40;;;;;;;;;18.25;16.50;;;;;8.67;61.46;101279.34;5052682;28;45592;-75
2023/03/05 09:14:27;;;;;;;;;14.75;12.25;;;;;8.68;61.50;101268.81;5054796;28;45858;-77
2023/03/05 09:16:53;;;;;;;;;16.00;14.00;;;;;8.75;61.58;101269.31;5053082;28;45626;-72
2023/03/05 09:19:19;;;;;;;;;17.25;15.00;;;;;8.72;61.41;101265.09;5053648;28;45677;-74
2023/03/05 09:21:44;;;;;;;;;15.00;11.25;;;;;8.83;61.41;101264.53;5052988;28;45652;-74
2023/03/05 09:24:10;;;;;;;;;20.75;18.75;;;;;8.83;61.04;101259.31;5053187;28;45820;-73
2023/03/05 09:26:36;;;;;;;;;19.25;15.25;;;;;8.82;61.12;101258.47;5053055;28;46007;-74
2023/03/05 09:29:02;;;;;;;;;16.25;14.00;;;;;8.85;60.80;101268.75;5053585;28;45551;-73
2023/03/05 09:31:28;;;;;;;;;23.00;18.75;;;;;8.78;60.49;101259.56;5053166;28;46287;-75
2023/03/05 09:33:53;;;;;;;;;16.50;15.00;;;;;8.83;60.72;101270.59;5053248;28;47135;-74
2023/03/05 09:36:22;;;;;;;;;17.50;15.75;;;;;8.75;60.39;101259.69;5052964;28;45570;-73
2023/03/05 09:38:48;;;;;;;;;15.50;13.75;;;;;8.80;60.41;101260.31;5053319;28;45526;-74
2023/03/05 09:44:50;;;;;;;;;15.00;13.75;;;;;8.76;60.26;101258.78;5053209;28;45735;-74
2023/03/05 09:47:44;;;;;;;;;17.50;11.50;;;;;8.73;59.88;101253.75;5053027;28;45890;-74
2023/03/05 09:50:33;;;;;;;;;20.00;15.00;;;;;8.72;60.05;101251.19;5054013;28;45570;-73
2023/03/05 09:53:23;;;;;;;;;22.25;14.00;;;;;8.75;60.04;101253.63;5052275;28;47877;-75
2023/03/05 09:55:56;;;;;;;;;17.50;15.50;;;;;8.68;59.95;101226.19;5042929;28;46206;-82
2023/03/05 09:58:42;;;;;;;;;19.50;15.00;;;;;8.82;59.87;101240.19;5056748;28;45721;-78
2023/03/05 10:01:40;;;;;;;;;18.50;14.50;;;;;8.77;60.03;101221.28;5055176;28;45666;-76
2023/03/05 10:04:20;;;;;;;;;13.75;10.75;;;;;8.89;59.47;101218.94;5054595;28;47425;-82
2023/03/05 10:07:11;;;;;;;;;9.75;8.75;;;;;8.85;58.87;101207.84;5054714;28;46186;-79
2023/03/05 10:13:04;;;;;;;;;8.00;7.00;;;;;8.84;58.55;101217.44;5057933;28;45548;-81
2023/03/05 10:16:05;;;;;;;;;13.25;10.25;;;;;8.86;58.66;101212.09;5044134;28;47053;-84
2023/03/05 10:18:50;;;;;;;;;11.00;9.25;;;;;8.92;58.76;101208.31;5065023;28;46147;-82
2023/03/05 10:21:34;;;;;;;;;18.25;10.75;;;;;8.96;58.63;101220.31;5065347;28;45794;-84
2023/03/05 10:24:10;;;;;;;;;17.50;14.00;;;;;8.82;58.60;101174.84;5057474;28;45945;-80
2023/03/05 10:30:18;;;;;;;;;20.00;14.50;;;;;9.05;58.06;101197.13;5058484;28;45731;-78
2023/03/05 10:33:11;;;;;;;;;14.75;13.00;;;;;9.03;57.94;101204.19;5040254;28;45757;-78
2023/03/05 10:35:48;;;;;;;;;11.25;10.50;;;;;9.00;57.77;101196.53;5058568;28;45643;-79
2023/03/05 10:38:43;;;;;;;;;12.75;10.75;;;;;8.99;57.75;101194.00;5057218;28;47496;-79
2023/03/05 10:41:54;;;;;;;;;9.50;5.50;;;;;8.97;57.73;101191.47;5057279;28;45686;-78
2023/03/05 10:44:35;;;;;;;;;13.50;11.00;;;;;8.97;57.70;101190.63;5032491;28;45922;-80
2023/03/05 10:47:01;;;;;;;;;19.50;14.00;;;;;8.82;57.57;101168.78;5056916;28;45572;-81
2023/03/05 10:49:47;;;;;;;;;13.75;12.25;;;;;8.68;57.96;101153.88;5057086;28;46726;-83
2023/03/05 10:52:17;;;;;;;;;18.00;15.50;;;;;8.86;58.00;101188.59;5057211;28;45541;-80
2023/03/05 10:54:43;;;;;;;;;17.75;15.00;;;;;8.80;58.01;101189.75;5056361;28;45814;-77
2023/03/05 10:57:11;;;;;;;;;14.75;13.50;;;;;8.82;57.29;101190.53;5042640;28;45641;-81
2023/03/05 10:59:40;;;;;;;;;17.00;13.25;;;;;8.54;57.59;101142.47;5058850;28;46687;-79
2023/03/05 11:02:08;;;;;;;;;17.25;11.25;;;;;8.58;58.12;101151.84;5059152;28;46167;-84
2023/03/05 11:04:37;;;;;;;;;13.75;11.00;;;;;8.75;58.12;101186.56;5060904;28;45726;-79
2023/03/05 11:07:31;;;;;;;;;13.00;9.00;;;;;8.75;57.96;101180.50;5061521;28;45579;-77
2023/03/05 11:10:00;;;;;;;;;9.50;8.75;;;;;8.75;57.65;101176.09;5055839;28;45705;-78
2023/03/05 11:12:36;;;;;;;;;15.50;14.50;;;;;8.70;57.96;101157.22;5044308;28;47695;-76
2023/03/05 11:15:21;;;;;;;;;10.75;10.25;;;;;8.77;58.06;101171.66;5062103;28;45885;-79
2023/03/05 11:18:14;;;;;;;;;14.00;10.75;;;;;8.76;57.97;101164.75;5057341;28;45963;-80
2023/03/05 11:20:40;;;;;;;;;20.25;14.25;;;;;8.75;57.87;101157.81;5058336;28;46488;-82
2023/03/05 11:23:16;;;;;;;;;17.25;16.25;;;;;8.84;57.88;101162.56;5057444;28;46208;-81
2023/03/05 11:29:17;;;;;;;;;9.50;8.25;;;;;8.85;56.81;101172.06;5055532;28;45599;-83
2023/03/05 11:31:42;;;;;;;;;13.75;10.50;;;;;8.86;56.77;101157.22;5056052;28;45819;-80
2023/03/05 11:34:16;;;;;;;;;15.75;14.00;;;;;8.85;56.67;101163.41;5056425;28;45699;-80
2023/03/05 11:36:54;;;;;;;;;12.00;9.50;;;;;8.84;56.50;101154.72;5055340;28;45540;-80
2023/03/05 11:39:24;;;;;;;;;11.00;10.00;;;;;8.85;56.63;101158.19;5055323;28;45595;-81
2023/03/05 11:45:17;;;;;;;;;11.50;9.50;;;;;8.84;56.27;101138.22;5056648;28;45543;-82
2023/03/05 11:47:50;;;;;;;;;7.25;7.25;;;;;8.87;56.56;101137.19;5056154;28;45705;-79
2023/03/05 11:50:15;;;;;;;;;8.25;6.00;;;;;8.93;55.47;101147.28;5055445;28;45685;-81
2023/03/05 11:52:46;;;;;;;;;6.00;6.00;;;;;8.92;55.29;101137.75;5055269;28;47329;-80
2023/03/05 11:55:25;;;;;;;;;6.75;6.25;;;;;8.87;54.85;101127.56;5055260;28;46403;-82
2023/03/05 12:01:44;;;;;;;;;7.25;5.75;;;;;8.75;54.82;101123.03;5058107;27;45878;-73
2023/03/05 12:04:10;;;;;;;;;10.75;9.50;;;;;8.70;55.32;101119.81;5054306;28;46692;-75
2023/03/05 12:06:41;;;;;;;;;12.25;9.75;;;;;8.68;55.23;101109.47;5054216;28;46490;-73
2023/03/05 12:09:11;;;;;;;;;31.50;23.75;;;;;8.74;55.13;101114.38;5054636;28;45597;-75
2023/03/05 12:11:37;;;;;;;;;11.25;7.00;;;;;8.76;55.18;101114.25;5053777;28;45860;-75
2023/03/05 12:14:08;;;;;;;;;7.00;7.00;;;;;8.77;55.04;101102.88;5053928;28;45970;-75
2023/03/05 12:16:40;;;;;;;;;24.25;19.00;;;;;8.75;55.05;101096.91;5054186;28;46459;-74
2023/03/05 12:19:27;;;;;;;;;22.50;15.75;;;;;8.79;54.83;101096.66;5054190;28;45636;-74
2023/03/05 12:21:53;;;;;;;;;27.75;23.25;;;;;8.79;54.98;101081.00;5054009;28;45661;-73
2023/03/05 12:24:25;;;;;;;;;15.50;12.25;;;;;8.83;55.24;101085.13;5036058;28;46449;-74
2023/03/05 12:27:10;;;;;;;;;13.00;9.25;;;;;8.86;54.99;101078.84;5053668;28;46365;-74
2023/03/05 12:29:43;;;;;;;;;10.75;9.00;;;;;8.85;55.17;101070.16;5054443;28;45826;-74
2023/03/05 12:32:51;;;;;;;;;10.75;7.00;;;;;8.86;55.05;101068.41;5054232;28;45939;-74
2023/03/05 12:35:22;;;;;;;;;7.50;2.25;;;;;8.84;55.29;101068.50;4972381;28;46483;-75
2023/03/05 12:37:48;;;;;;;;;11.75;10.00;;;;;8.84;55.36;101060.69;4972622;28;46265;-74
2023/03/05 12:40:22;;;;;;;;;10.33;9.00;;;;;8.83;55.67;101055.53;4972304;28;45619;-74
2023/03/05 12:42:51;;;;;;;;;10.75;9.50;;;;;8.81;55.40;101054.75;4972301;28;45718;-73
2023/03/05 12:45:18;;;;;;;;;19.25;11.50;;;;;8.79;55.47;101047.03;4972105;28;47908;-75
2023/03/05 12:47:55;;;;;;;;;17.00;15.25;;;;;8.79;55.61;101041.81;4972286;28;45618;-74
2023/03/05 12:50:26;;;;;;;;;7.75;7.00;;;;;8.82;55.56;101041.63;4972136;28;45768;-73
2023/03/05 12:53:19;;;;;;;;;7.00;6.00;;;;;8.84;55.35;101034.56;4972565;28;45767;-75
2023/03/05 12:55:44;;;;;;;;;11.50;7.00;;;;;8.83;55.24;101022.41;4969641;28;47853;-71
2023/03/05 12:58:34;;;;;;;;;9.50;7.00;;;;;8.84;54.89;101024.09;4971922;28;47182;-72
2023/03/05 13:01:33;;;;;;;;;8.50;8.50;;;;;8.84;55.26;101011.03;4981850;28;45729;-73
2023/03/05 13:04:13;;;;;;;;;8.50;7.00;;;;;8.88;55.15;101008.22;4992232;28;45770;-75
2023/03/05 13:06:39;;;;;;;;;11.00;9.00;;;;;8.92;55.17;101000.13;4991577;28;46923;-71
2023/03/05 13:09:36;;;;;;;;;9.75;7.25;;;;;8.96;54.75;101003.44;4991732;28;46689;-73